Lake Milton, OH (44429)

20:08 EDT le 28 juillet 2016 (GMT -0400)
KOHBERLI2 | | Change Station

Alt. 1053 ft 41.07 °N, 80.95 °W | Updated 1 second ago

Mostly Cloudy
Nuageux
74.8 ° F
Paraît 76 ° F
N
0.0
Vent Variable Vent de SE
Gusts 0.0 mph

Aujourd'hui
Haut(e) -- | Bas -- ° F
--% Risque de précip.
Hier
Haut(e) -- | Bas -- ° F
Precip. -- pouce
Pression 29.90 pouce
Visibilité 10.0 Miles terrestres
Nuages Nuageux 12000 ft
indice de chaleur 76 ° F
Point de rosée 67 ° F
Humidité 76%
Précipitations 0.05 pouce
Profondeur de la couche neigeuse Non disponible.
6:16 AM 8:43 PM
Lune descendante, 27% visible
METAR KPOV 290000Z AUTO 00000KT 10SM BKN120 24/19 A2990 RMK AO2 T02430188 10277 20243
Pression 29.90 pouce
Visibilité 10.0 Miles terrestres
Nuages Nuageux 12000 ft
indice de chaleur 76 ° F
Point de rosée 67 ° F
Humidité 76%
Précipitations 0.05 pouce
Profondeur de la couche neigeuse Non disponible.
6:16 AM 8:43 PM
Lune descendante, 27% visible
METAR KPOV 290000Z AUTO 00000KT 10SM BKN120 24/19 A2990 RMK AO2 T02430188 10277 20243

10-Day Weather Forecast

Almanac

Astronomie

Jul. 28, 2016 Lever Coucher
Temps réel
Crépuscule civil
Crépuscule nautique
Crépuscule astronomique
Lune
Durée de lumière visible
Longueur du jour
Tomorrow will be .
, % of the Moon is Illuminated

Extrêmes aujourd'hui

State Highs State Lows

Community

WunderPhotos

Upload Photos

1,928,239 Photos téléchargées !

WunderBlog® & News

Nearby

Qualité de l'air

  Qualité de l'air Indice de la qualité de l'air Polluant
Not available.

Épaisseur de neige

Station Depth Altitude

Activité sismique

Ville Distance Mag. Time & Date
Minimum magnitude displayed is 2.5.

Températures des eaux côtières

Lieu Température

Stations

Stations météo à proximité

Emplacement de la station Température Refroidissement éolien Point de rosée Humidité Vent Precip. Alt. Mise à jour Type
                   

Watches & Warnings

There are currently no watches in effect.